Time;durP1;ratioP1;P1;durP2;ratioP2;P2;SDS_P1;SDS_P2;PMS_P1;PMS_P2;Temp;Humidity;BMP_temperature;BMP_pressure;BME280_temperature;BME280_humidity;BME280_pressure;Samples;Min_cycle;Max_cycle;Signal;HPM_P1;HPM_P2
2023/03/07 00:01:58;;;;;;;;;;;4.00;99.90;;;;;;5090357;28;19934;-75
2023/03/07 00:04:23;;;;;;;;;;;4.10;99.90;;;;;;5090219;28;19916;-75
2023/03/07 00:06:49;;;;;;;;;;;4.00;99.80;;;;;;5093295;28;19920;-75
2023/03/07 00:09:14;;;;;;;;;;;4.00;99.90;;;;;;5101055;28;19912;-75
2023/03/07 00:11:39;;;;;;;;;;;4.00;99.90;;;;;;5088610;28;19935;-75
2023/03/07 00:14:08;;;;;;;;;;;4.00;99.90;;;;;;5090181;28;19911;-75
2023/03/07 00:16:33;;;;;;;;;;;4.00;99.90;;;;;;5100372;28;20030;-74
2023/03/07 00:18:59;;;;;;;;;;;4.00;99.90;;;;;;5110749;28;20006;-74
2023/03/07 00:21:30;;;;;;;;;;;4.10;99.90;;;;;;5110779;28;19919;-75
2023/03/07 00:23:55;;;;;;;;;;;4.00;99.90;;;;;;5102866;28;20625;-74
2023/03/07 00:26:22;;;;;;;;;;;4.10;99.90;;;;;;5090065;28;19912;-75
2023/03/07 00:28:48;;;;;;;;;;;4.10;99.90;;;;;;5090015;28;19923;-74
2023/03/07 00:31:14;;;;;;;;;;;4.00;99.90;;;;;;5090301;28;19915;-75
2023/03/07 00:33:40;;;;;;;;;;;4.10;99.90;;;;;;5088194;28;19916;-75
2023/03/07 00:36:06;;;;;;;;;;;4.10;99.90;;;;;;5089996;28;19919;-77
2023/03/07 00:38:32;;;;;;;;;;;4.10;99.90;;;;;;5088551;28;19919;-75
2023/03/07 00:41:05;;;;;;;;;;;4.10;99.90;;;;;;5087475;28;19923;-75
2023/03/07 00:43:31;;;;;;;;;;;4.10;99.90;;;;;;5069161;28;19912;-75
2023/03/07 00:45:57;;;;;;;;;;;4.10;99.90;;;;;;5079845;28;19980;-75
2023/03/07 00:48:23;;;;;;;;;;;4.10;99.90;;;;;;5110462;28;19918;-75
2023/03/07 00:50:49;;;;;;;;;;;4.10;99.90;;;;;;5110065;28;19908;-75
2023/03/07 00:53:15;;;;;;;;;;;4.10;99.90;;;;;;5109866;28;19915;-75
2023/03/07 00:55:40;;;;;;;;;;;4.10;99.90;;;;;;5109725;28;19912;-75
2023/03/07 00:58:06;;;;;;;;;;;4.10;99.90;;;;;;5092702;28;19916;-75
2023/03/07 01:00:31;;;;;;;;;;;4.10;99.90;;;;;;5088890;28;20637;-75
2023/03/07 01:02:57;;;;;;;;;;;4.10;99.90;;;;;;5086624;28;19919;-75
2023/03/07 01:05:23;;;;;;;;;;;4.10;99.90;;;;;;5089084;28;19916;-75
2023/03/07 01:07:48;;;;;;;;;;;4.10;99.90;;;;;;5089291;28;19912;-75
2023/03/07 01:10:14;;;;;;;;;;;4.10;99.90;;;;;;5085489;28;19920;-74
2023/03/07 01:12:42;;;;;;;;;;;4.10;99.90;;;;;;5088547;28;19915;-75
2023/03/07 01:15:08;;;;;;;;;;;4.10;99.90;;;;;;5107021;28;19912;-76
2023/03/07 01:17:33;;;;;;;;;;;4.10;99.90;;;;;;5107833;28;20411;-76
2023/03/07 01:19:59;;;;;;;;;;;4.10;99.90;;;;;;5109353;28;19964;-75
2023/03/07 01:22:24;;;;;;;;;;;4.10;99.90;;;;;;5109339;28;20414;-76
2023/03/07 01:24:50;;;;;;;;;;;4.10;99.90;;;;;;5108894;27;19916;-75
2023/03/07 01:27:15;;;;;;;;;;;4.20;99.90;;;;;;5109461;28;19911;-75
2023/03/07 01:29:41;;;;;;;;;;;4.20;99.90;;;;;;5105901;28;20269;-75
2023/03/07 01:32:06;;;;;;;;;;;4.10;99.90;;;;;;5088653;28;19912;-75
2023/03/07 01:34:32;;;;;;;;;;;4.20;99.90;;;;;;5088074;28;20617;-75
2023/03/07 01:36:57;;;;;;;;;;;4.10;99.90;;;;;;5088604;28;20017;-75
2023/03/07 01:39:23;;;;;;;;;;;4.20;99.90;;;;;;5103988;28;19934;-76
2023/03/07 01:41:48;;;;;;;;;;;4.20;99.90;;;;;;5101302;28;19908;-76
2023/03/07 01:44:18;;;;;;;;;;;4.20;99.90;;;;;;5108801;28;20354;-76
2023/03/07 01:46:46;;;;;;;;;;;4.10;99.90;;;;;;5101774;28;19916;-75
2023/03/07 01:49:24;;;;;;;;;;;4.10;99.90;;;;;;5086866;28;20403;-75
2023/03/07 01:51:52;;;;;;;;;;;4.10;99.90;;;;;;5088486;28;19908;-75
2023/03/07 01:54:19;;;;;;;;;;;4.20;99.90;;;;;;5102491;28;20015;-75
2023/03/07 01:56:45;;;;;;;;;;;4.20;99.90;;;;;;5108771;28;20278;-76
2023/03/07 01:59:12;;;;;;;;;;;4.20;99.90;;;;;;5108508;28;19912;-76
2023/03/07 02:01:37;;;;;;;;;;;4.20;99.90;;;;;;5108582;28;19912;-75
2023/03/07 02:04:26;;;;;;;;;;;4.20;99.90;;;;;;5091678;28;20336;-75
2023/03/07 02:06:51;;;;;;;;;;;4.20;99.90;;;;;;5087887;28;19915;-75
2023/03/07 02:09:19;;;;;;;;;;;4.20;99.90;;;;;;5087675;28;19912;-75
2023/03/07 02:11:46;;;;;;;;;;;4.20;99.90;;;;;;5087338;28;19951;-75
2023/03/07 02:14:11;;;;;;;;;;;4.20;99.90;;;;;;5087729;28;19916;-76
2023/03/07 02:16:37;;;;;;;;;;;4.20;99.90;;;;;;5098879;28;19911;-75
2023/03/07 02:19:09;;;;;;;;;;;4.20;99.90;;;;;;5102519;28;20396;-75
2023/03/07 02:21:40;;;;;;;;;;;4.20;99.90;;;;;;5087995;28;19922;-75
2023/03/07 02:24:26;;;;;;;;;;;4.20;99.90;;;;;;5100560;28;19961;-75
2023/03/07 02:26:52;;;;;;;;;;;4.20;99.90;;;;;;5107859;28;20037;-75
2023/03/07 02:29:18;;;;;;;;;;;4.20;99.90;;;;;;5108363;28;20014;-75
2023/03/07 02:31:43;;;;;;;;;;;4.20;99.90;;;;;;5107563;28;19915;-75
2023/03/07 02:34:26;;;;;;;;;;;4.20;99.90;;;;;;5087785;28;20361;-75
2023/03/07 02:36:53;;;;;;;;;;;4.20;99.90;;;;;;5090222;28;19916;-75
2023/03/07 02:39:20;;;;;;;;;;;4.20;99.90;;;;;;5087815;28;19957;-75
2023/03/07 02:41:46;;;;;;;;;;;4.20;99.90;;;;;;5078688;28;19912;-76
2023/03/07 02:44:11;;;;;;;;;;;4.20;99.90;;;;;;5067279;28;19916;-75
2023/03/07 02:46:37;;;;;;;;;;;4.20;99.90;;;;;;5090405;28;19998;-75
2023/03/07 02:49:02;;;;;;;;;;;4.20;99.90;;;;;;5112509;28;19918;-75
2023/03/07 02:51:28;;;;;;;;;;;4.20;99.90;;;;;;5108272;27;20007;-75
2023/03/07 02:53:53;;;;;;;;;;;4.20;99.90;;;;;;5102799;28;19923;-75
2023/03/07 02:56:19;;;;;;;;;;;4.20;99.90;;;;;;5112290;28;19998;-76
2023/03/07 02:58:44;;;;;;;;;;;4.20;99.90;;;;;;5112324;28;19943;-75
2023/03/07 03:01:10;;;;;;;;;;;4.20;99.90;;;;;;5112146;28;19912;-75
2023/03/07 03:03:36;;;;;;;;;;;4.20;99.90;;;;;;5111569;28;19912;-75
2023/03/07 03:06:01;;;;;;;;;;;4.20;99.90;;;;;;5104972;28;19916;-76
2023/03/07 03:08:26;;;;;;;;;;;4.20;99.90;;;;;;5092531;28;19912;-75
2023/03/07 03:10:53;;;;;;;;;;;4.20;99.90;;;;;;5089210;28;20503;-76
2023/03/07 03:13:19;;;;;;;;;;;4.20;99.90;;;;;;5091124;28;19912;-75
2023/03/07 03:15:44;;;;;;;;;;;4.30;99.90;;;;;;5094698;28;19920;-75
2023/03/07 03:18:10;;;;;;;;;;;4.20;99.90;;;;;;5111493;28;20507;-74
2023/03/07 03:20:38;;;;;;;;;;;4.20;99.90;;;;;;5110497;28;20006;-76
2023/03/07 03:23:03;;;;;;;;;;;4.20;99.90;;;;;;5111771;28;19912;-75
2023/03/07 03:25:29;;;;;;;;;;;4.30;99.90;;;;;;5101135;28;20315;-75
2023/03/07 03:27:54;;;;;;;;;;;4.30;99.90;;;;;;5091058;28;19913;-75
2023/03/07 03:30:20;;;;;;;;;;;4.20;99.90;;;;;;5090946;28;19948;-75
2023/03/07 03:32:46;;;;;;;;;;;4.20;99.90;;;;;;5091012;28;19919;-75
2023/03/07 03:35:11;;;;;;;;;;;4.20;99.90;;;;;;5090834;28;19918;-76
2023/03/07 03:37:37;;;;;;;;;;;4.20;99.90;;;;;;5092400;28;19912;-76
2023/03/07 03:40:05;;;;;;;;;;;4.20;99.90;;;;;;5090825;28;19912;-76
2023/03/07 03:42:31;;;;;;;;;;;4.20;99.90;;;;;;5091156;28;19916;-75
2023/03/07 03:44:56;;;;;;;;;;;4.20;99.90;;;;;;5090529;28;19973;-76
2023/03/07 03:47:22;;;;;;;;;;;4.20;99.90;;;;;;5107534;28;19950;-75
2023/03/07 03:49:47;;;;;;;;;;;4.20;99.90;;;;;;5111112;28;19919;-75
2023/03/07 03:52:13;;;;;;;;;;;4.20;99.90;;;;;;5111589;28;20348;-75
2023/03/07 03:54:38;;;;;;;;;;;4.20;99.90;;;;;;5111055;28;19982;-75
2023/03/07 03:57:04;;;;;;;;;;;4.20;99.90;;;;;;5109125;28;19920;-75
2023/03/07 03:59:29;;;;;;;;;;;4.20;99.90;;;;;;5089797;28;19919;-75
2023/03/07 04:01:55;;;;;;;;;;;4.20;99.90;;;;;;5090275;28;19989;-75
2023/03/07 04:04:21;;;;;;;;;;;4.20;99.90;;;;;;5090083;28;19920;-75
2023/03/07 04:06:47;;;;;;;;;;;4.20;99.90;;;;;;5090004;28;19912;-76
2023/03/07 04:09:12;;;;;;;;;;;4.20;99.90;;;;;;5090132;28;20442;-75
2023/03/07 04:11:38;;;;;;;;;;;4.20;99.90;;;;;;5088435;28;19912;-75
2023/03/07 04:14:03;;;;;;;;;;;4.20;99.90;;;;;;5091159;28;20025;-75
2023/03/07 04:16:29;;;;;;;;;;;4.20;99.90;;;;;;5084767;28;19958;-74
2023/03/07 04:18:54;;;;;;;;;;;4.20;99.90;;;;;;5087977;28;19998;-75
2023/03/07 04:21:20;;;;;;;;;;;4.20;99.90;;;;;;5101776;28;19917;-75
2023/03/07 04:23:48;;;;;;;;;;;4.20;99.90;;;;;;5110156;28;20367;-75
2023/03/07 04:26:14;;;;;;;;;;;4.30;99.90;;;;;;5110124;28;20307;-75
2023/03/07 04:28:43;;;;;;;;;;;4.20;99.90;;;;;;5109616;28;20014;-76
2023/03/07 04:31:10;;;;;;;;;;;4.20;99.90;;;;;;5098025;28;19999;-75
2023/03/07 04:33:35;;;;;;;;;;;4.30;99.90;;;;;;5088257;28;19911;-75
2023/03/07 04:36:01;;;;;;;;;;;4.30;99.90;;;;;;5089848;28;19918;-75
2023/03/07 04:38:26;;;;;;;;;;;4.20;99.90;;;;;;5090038;28;20421;-75
2023/03/07 04:40:52;;;;;;;;;;;4.20;99.90;;;;;;5088753;28;19916;-75
2023/03/07 04:43:17;;;;;;;;;;;4.30;99.90;;;;;;5069102;28;19940;-75
2023/03/07 04:45:43;;;;;;;;;;;4.30;99.90;;;;;;5069210;28;20563;-75
2023/03/07 04:48:08;;;;;;;;;;;4.20;99.90;;;;;;5088538;28;19915;-75
2023/03/07 04:50:34;;;;;;;;;;;4.20;99.90;;;;;;5089505;28;20380;-75
2023/03/07 04:52:59;;;;;;;;;;;4.20;99.90;;;;;;5093015;28;20638;-75
2023/03/07 04:55:25;;;;;;;;;;;4.20;99.90;;;;;;5109661;28;19951;-75
2023/03/07 04:57:50;;;;;;;;;;;4.20;99.90;;;;;;5109827;28;19912;-75
2023/03/07 05:00:16;;;;;;;;;;;4.20;99.90;;;;;;5109737;28;19915;-75
2023/03/07 05:02:43;;;;;;;;;;;4.20;99.90;;;;;;5108291;28;19957;-75
2023/03/07 05:05:09;;;;;;;;;;;4.20;99.90;;;;;;5090436;28;20026;-76
2023/03/07 05:07:34;;;;;;;;;;;4.30;99.90;;;;;;5089391;28;19998;-75
2023/03/07 05:10:00;;;;;;;;;;;4.30;99.90;;;;;;5087716;28;20388;-76
2023/03/07 05:12:25;;;;;;;;;;;4.20;99.90;;;;;;5088966;28;19918;-75
2023/03/07 05:14:51;;;;;;;;;;;4.20;99.90;;;;;;5088673;28;20412;-74
2023/03/07 05:17:17;;;;;;;;;;;4.20;99.90;;;;;;5087173;28;19960;-75
2023/03/07 05:19:43;;;;;;;;;;;4.20;99.90;;;;;;5090032;28;20455;-75
2023/03/07 05:22:08;;;;;;;;;;;4.30;99.90;;;;;;5089014;28;19947;-76
2023/03/07 05:24:34;;;;;;;;;;;4.30;99.90;;;;;;5105357;28;19927;-75
2023/03/07 05:26:59;;;;;;;;;;;4.20;99.90;;;;;;5109056;28;19912;-75
2023/03/07 05:29:25;;;;;;;;;;;4.20;99.90;;;;;;5088974;28;19966;-75
2023/03/07 05:31:50;;;;;;;;;;;4.20;99.90;;;;;;5088354;28;20556;-76
2023/03/07 05:34:16;;;;;;;;;;;4.20;99.90;;;;;;5088484;28;19918;-75
2023/03/07 05:36:41;;;;;;;;;;;4.30;99.90;;;;;;5089891;28;19919;-76
2023/03/07 05:39:07;;;;;;;;;;;4.20;99.90;;;;;;5088809;28;19912;-76
2023/03/07 05:41:33;;;;;;;;;;;4.20;99.90;;;;;;5081358;28;20559;-75
2023/03/07 05:43:58;;;;;;;;;;;4.20;99.90;;;;;;5067907;28;19923;-75
2023/03/07 05:46:24;;;;;;;;;;;4.20;99.90;;;;;;5072160;28;20281;-75
2023/03/07 05:48:49;;;;;;;;;;;4.20;99.90;;;;;;5088437;28;19951;-75
2023/03/07 05:51:15;;;;;;;;;;;4.20;99.90;;;;;;5087785;28;19912;-75
2023/03/07 05:53:41;;;;;;;;;;;4.20;99.90;;;;;;5098280;28;20276;-75
2023/03/07 05:56:06;;;;;;;;;;;4.20;99.90;;;;;;5108229;28;20626;-75
2023/03/07 05:58:32;;;;;;;;;;;4.20;99.90;;;;;;5107991;28;19922;-74
2023/03/07 06:01:00;;;;;;;;;;;4.20;99.90;;;;;;5107889;28;19912;-75
2023/03/07 06:03:25;;;;;;;;;;;4.30;99.90;;;;;;5108044;28;19965;-75
2023/03/07 06:05:51;;;;;;;;;;;4.30;99.90;;;;;;5101694;28;20369;-75
2023/03/07 06:08:16;;;;;;;;;;;4.20;99.90;;;;;;5088216;28;19912;-75
2023/03/07 06:10:42;;;;;;;;;;;4.20;99.90;;;;;;5088468;28;19916;-74
2023/03/07 06:13:15;;;;;;;;;;;4.20;99.90;;;;;;5086407;28;19916;-75
2023/03/07 06:15:40;;;;;;;;;;;4.20;99.90;;;;;;5086772;28;20317;-75
2023/03/07 06:18:05;;;;;;;;;;;4.20;99.90;;;;;;5087685;28;19964;-76
2023/03/07 06:20:31;;;;;;;;;;;4.20;99.90;;;;;;5087966;28;19908;-75
2023/03/07 06:22:56;;;;;;;;;;;4.20;99.90;;;;;;5090717;28;19963;-75
2023/03/07 06:25:22;;;;;;;;;;;4.20;99.90;;;;;;5104571;28;19926;-75
2023/03/07 06:27:47;;;;;;;;;;;4.20;99.90;;;;;;5087737;28;19912;-75
2023/03/07 06:30:13;;;;;;;;;;;4.20;99.90;;;;;;5087805;28;19912;-75
2023/03/07 06:32:38;;;;;;;;;;;4.30;99.90;;;;;;5087842;28;19973;-75
2023/03/07 06:35:04;;;;;;;;;;;4.20;99.90;;;;;;5087530;28;20002;-75
2023/03/07 06:37:30;;;;;;;;;;;4.20;99.90;;;;;;5087909;28;19912;-74
2023/03/07 06:39:56;;;;;;;;;;;4.20;99.90;;;;;;5087826;28;20288;-75
2023/03/07 06:42:21;;;;;;;;;;;4.20;99.90;;;;;;5084254;28;19916;-76
2023/03/07 06:44:47;;;;;;;;;;;4.20;99.90;;;;;;5087520;28;20528;-75
2023/03/07 06:47:12;;;;;;;;;;;4.20;99.90;;;;;;5087780;28;19970;-75
2023/03/07 06:49:38;;;;;;;;;;;4.20;99.90;;;;;;5087826;28;19908;-75
2023/03/07 06:52:04;;;;;;;;;;;4.20;99.90;;;;;;5086386;28;19966;-75
2023/03/07 06:54:30;;;;;;;;;;;4.20;99.90;;;;;;5103842;28;19915;-75
2023/03/07 06:56:55;;;;;;;;;;;4.20;99.90;;;;;;5108266;28;19911;-75
2023/03/07 06:59:21;;;;;;;;;;;4.20;99.90;;;;;;5091240;28;19924;-75
2023/03/07 07:01:47;;;;;;;;;;;4.20;99.90;;;;;;5087752;28;19912;-76
2023/03/07 07:04:12;;;;;;;;;;;4.30;99.90;;;;;;5087882;28;19958;-75
2023/03/07 07:06:38;;;;;;;;;;;4.30;99.90;;;;;;5095959;28;19939;-75
2023/03/07 07:09:04;;;;;;;;;;;4.30;99.90;;;;;;5084566;28;19913;-75
2023/03/07 07:11:30;;;;;;;;;;;4.30;99.90;;;;;;5086762;28;19908;-75
2023/03/07 07:13:55;;;;;;;;;;;4.20;99.90;;;;;;5084899;28;19965;-75
2023/03/07 07:16:21;;;;;;;;;;;4.30;99.90;;;;;;5087321;28;19912;-75
2023/03/07 07:18:48;;;;;;;;;;;4.30;99.90;;;;;;5092886;28;19920;-75
2023/03/07 07:21:14;;;;;;;;;;;4.30;99.90;;;;;;5107934;28;19951;-75
2023/03/07 07:23:40;;;;;;;;;;;4.30;99.90;;;;;;5107429;28;19950;-75
2023/03/07 07:26:05;;;;;;;;;;;4.30;99.90;;;;;;5107700;28;20269;-75
2023/03/07 07:28:31;;;;;;;;;;;4.30;99.90;;;;;;5107591;27;20010;-75
2023/03/07 07:30:56;;;;;;;;;;;4.30;99.90;;;;;;5107627;28;20023;-75
2023/03/07 07:33:22;;;;;;;;;;;4.30;99.90;;;;;;5107977;28;19916;-74
2023/03/07 07:35:47;;;;;;;;;;;4.30;99.90;;;;;;5106482;28;20285;-75
2023/03/07 07:38:13;;;;;;;;;;;4.30;99.90;;;;;;5090892;28;19961;-75
2023/03/07 07:40:38;;;;;;;;;;;4.30;99.90;;;;;;5091003;28;20464;-74
2023/03/07 07:43:04;;;;;;;;;;;4.30;99.90;;;;;;5069423;28;19962;-74
2023/03/07 07:45:30;;;;;;;;;;;4.30;99.90;;;;;;5071451;28;20357;-74
2023/03/07 07:47:55;;;;;;;;;;;4.30;99.90;;;;;;5094093;28;19916;-74
2023/03/07 07:50:21;;;;;;;;;;;4.30;99.90;;;;;;5090891;28;19909;-74
2023/03/07 07:52:47;;;;;;;;;;;4.30;99.90;;;;;;5092433;28;20375;-75
2023/03/07 07:55:13;;;;;;;;;;;4.30;99.90;;;;;;5110790;28;19966;-74
2023/03/07 07:57:39;;;;;;;;;;;4.30;99.90;;;;;;5110863;28;19957;-74
2023/03/07 08:00:06;;;;;;;;;;;4.30;99.90;;;;;;5110989;28;19926;-74
2023/03/07 08:02:33;;;;;;;;;;;4.30;99.90;;;;;;5106464;28;19916;-74
2023/03/07 08:04:58;;;;;;;;;;;4.30;99.90;;;;;;5090282;28;19921;-74
2023/03/07 08:07:24;;;;;;;;;;;4.30;99.90;;;;;;5090711;28;19913;-74
2023/03/07 08:09:49;;;;;;;;;;;4.30;99.90;;;;;;5095917;28;20342;-74
2023/03/07 08:12:15;;;;;;;;;;;4.30;99.90;;;;;;5088387;28;19959;-75
2023/03/07 08:14:40;;;;;;;;;;;4.30;99.90;;;;;;5090075;28;19912;-74
2023/03/07 08:17:06;;;;;;;;;;;4.40;99.90;;;;;;5091789;28;19912;-74
2023/03/07 08:19:31;;;;;;;;;;;4.40;99.90;;;;;;5089864;28;20402;-75
2023/03/07 08:21:58;;;;;;;;;;;4.40;99.90;;;;;;5090315;28;19916;-74
2023/03/07 08:24:24;;;;;;;;;;;4.40;99.90;;;;;;5105108;28;20390;-75
2023/03/07 08:26:49;;;;;;;;;;;4.40;99.90;;;;;;5110453;27;20030;-75
2023/03/07 08:29:15;;;;;;;;;;;4.40;99.90;;;;;;5110537;28;19915;-75
2023/03/07 08:31:42;;;;;;;;;;;4.40;99.90;;;;;;5107251;28;19947;-74
2023/03/07 08:34:07;;;;;;;;;;;4.40;99.90;;;;;;5100008;28;19915;-74
2023/03/07 08:36:33;;;;;;;;;;;4.40;99.90;;;;;;5097885;28;20112;-75
2023/03/07 08:38:58;;;;;;;;;;;4.40;99.90;;;;;;5089072;28;20010;-74
2023/03/07 08:41:24;;;;;;;;;;;4.40;99.90;;;;;;5083999;28;19909;-74
2023/03/07 08:43:49;;;;;;;;;;;4.40;99.90;;;;;;5069246;28;19913;-75
2023/03/07 08:46:15;;;;;;;;;;;4.40;99.90;;;;;;5077853;28;19916;-75
2023/03/07 08:48:40;;;;;;;;;;;4.40;99.90;;;;;;5089556;28;19982;-75
2023/03/07 08:51:07;;;;;;;;;;;4.40;99.90;;;;;;5089584;28;20261;-75
2023/03/07 08:53:33;;;;;;;;;;;4.40;99.90;;;;;;5097555;28;19908;-74
2023/03/07 08:55:58;;;;;;;;;;;4.40;99.90;;;;;;5108307;28;20014;-74
2023/03/07 08:58:24;;;;;;;;;;;4.40;99.90;;;;;;5109990;28;19912;-74
2023/03/07 09:00:49;;;;;;;;;;;4.40;99.90;;;;;;5109115;28;19912;-74
2023/03/07 09:03:15;;;;;;;;;;;4.40;99.90;;;;;;5109428;28;19912;-74
2023/03/07 09:05:40;;;;;;;;;;;4.40;99.90;;;;;;5105507;28;20365;-74
2023/03/07 09:08:06;;;;;;;;;;;4.40;99.90;;;;;;5089352;28;19920;-75
2023/03/07 09:10:32;;;;;;;;;;;4.40;99.90;;;;;;5087310;28;19912;-74
2023/03/07 09:12:58;;;;;;;;;;;4.40;99.90;;;;;;5088721;28;19912;-75
2023/03/07 09:15:24;;;;;;;;;;;4.40;99.90;;;;;;5088868;28;19958;-74
2023/03/07 09:17:50;;;;;;;;;;;4.40;99.90;;;;;;5089589;28;20024;-74
2023/03/07 09:20:16;;;;;;;;;;;4.40;99.90;;;;;;5089132;28;20052;-74
2023/03/07 09:22:42;;;;;;;;;;;4.40;99.90;;;;;;5089793;28;19908;-74
2023/03/07 09:25:07;;;;;;;;;;;4.40;99.90;;;;;;5109066;28;19916;-75
2023/03/07 09:27:33;;;;;;;;;;;4.40;99.90;;;;;;5109190;28;20027;-74
2023/03/07 09:29:58;;;;;;;;;;;4.40;99.90;;;;;;5109353;28;19918;-75
2023/03/07 09:32:24;;;;;;;;;;;4.40;99.90;;;;;;5104956;28;20312;-74
2023/03/07 09:34:50;;;;;;;;;;;4.40;99.90;;;;;;5088373;28;20358;-74
2023/03/07 09:37:17;;;;;;;;;;;4.40;99.90;;;;;;5088579;28;19912;-74
2023/03/07 09:39:43;;;;;;;;;;;4.40;99.90;;;;;;5088620;28;19912;-75
2023/03/07 09:42:27;;;;;;;;;;;4.40;99.90;;;;;;5076374;28;20404;-74
2023/03/07 09:45:11;;;;;;;;;;;4.40;99.90;;;;;;5081061;28;19919;-75
2023/03/07 09:47:46;;;;;;;;;;;4.40;99.90;;;;;;5094558;28;19946;-74
2023/03/07 09:50:23;;;;;;;;;;;4.30;99.90;;;;;;5088462;28;19908;-75
2023/03/07 09:52:52;;;;;;;;;;;4.40;99.90;;;;;;5090484;28;19993;-74
2023/03/07 09:55:19;;;;;;;;;;;4.40;99.90;;;;;;5108226;28;19964;-75
2023/03/07 09:57:49;;;;;;;;;;;4.40;99.90;;;;;;5108401;28;19911;-74
2023/03/07 10:00:24;;;;;;;;;;;4.40;99.90;;;;;;5107827;28;19920;-75
2023/03/07 10:03:02;;;;;;;;;;;4.40;99.90;;;;;;5106999;28;19965;-74
2023/03/07 10:05:31;;;;;;;;;;;4.30;99.90;;;;;;5105715;28;20454;-75
2023/03/07 10:07:56;;;;;;;;;;;4.40;99.90;;;;;;5088298;28;19912;-74
2023/03/07 10:10:24;;;;;;;;;;;4.40;99.90;;;;;;5087766;28;19912;-74
2023/03/07 10:12:59;;;;;;;;;;;4.40;99.90;;;;;;5086578;28;20380;-75
2023/03/07 10:15:31;;;;;;;;;;;4.40;99.90;;;;;;5087721;28;20348;-75
2023/03/07 10:17:56;;;;;;;;;;;4.40;99.90;;;;;;5081120;28;19920;-75
2023/03/07 10:20:41;;;;;;;;;;;4.40;99.90;;;;;;5092016;28;20390;-74
2023/03/07 10:23:06;;;;;;;;;;;4.40;99.90;;;;;;5093391;28;19918;-74
2023/03/07 10:25:35;;;;;;;;;;;4.40;99.90;;;;;;5108156;28;19919;-74
2023/03/07 10:28:30;;;;;;;;;;;4.40;99.90;;;;;;5108193;28;20476;-74
2023/03/07 10:31:01;;;;;;;;;;;4.40;99.90;;;;;;5098914;28;19919;-75
2023/03/07 10:33:27;;;;;;;;;;;4.40;99.90;;;;;;5083021;28;19919;-75
2023/03/07 10:35:56;;;;;;;;;;;4.40;99.90;;;;;;5083098;28;20584;-74
2023/03/07 10:38:27;;;;;;;;;;;4.40;99.90;;;;;;5088134;28;19935;-74
2023/03/07 10:40:55;;;;;;;;;;;4.40;99.90;;;;;;5086344;28;20045;-74
2023/03/07 10:43:25;;;;;;;;;;;4.40;99.90;;;;;;5067356;28;19952;-74
2023/03/07 10:46:11;;;;;;;;;;;4.40;99.90;;;;;;5067712;28;19916;-74
2023/03/07 10:48:54;;;;;;;;;;;4.40;99.90;;;;;;5103033;28;19919;-74
2023/03/07 10:51:49;;;;;;;;;;;4.40;99.90;;;;;;5107761;28;19933;-75
2023/03/07 10:54:28;;;;;;;;;;;4.40;99.90;;;;;;5035426;28;20609;-75
2023/03/07 10:57:05;;;;;;;;;;;4.40;99.90;;;;;;5067267;28;19912;-74
2023/03/07 10:59:31;;;;;;;;;;;4.40;99.90;;;;;;5067498;28;20380;-74
2023/03/07 11:01:57;;;;;;;;;;;4.40;99.90;;;;;;5067476;28;19938;-74
2023/03/07 11:04:24;;;;;;;;;;;4.40;99.90;;;;;;5076703;28;20026;-74
2023/03/07 11:06:59;;;;;;;;;;;4.40;99.90;;;;;;5087124;28;19961;-74
2023/03/07 11:09:32;;;;;;;;;;;4.40;99.90;;;;;;5089442;28;19911;-74
2023/03/07 11:11:59;;;;;;;;;;;4.40;99.90;;;;;;5090295;28;19955;-74
2023/03/07 11:14:26;;;;;;;;;;;4.40;99.90;;;;;;5090022;28;19919;-75
2023/03/07 11:16:51;;;;;;;;;;;4.40;99.90;;;;;;5094909;28;20457;-74
2023/03/07 11:19:22;;;;;;;;;;;4.40;99.90;;;;;;5111669;28;19954;-75
2023/03/07 11:21:52;;;;;;;;;;;4.40;99.90;;;;;;5110975;28;19912;-74
2023/03/07 11:24:24;;;;;;;;;;;4.40;99.90;;;;;;5110992;28;19958;-75
2023/03/07 11:26:52;;;;;;;;;;;4.40;99.90;;;;;;5111482;28;19919;-74
2023/03/07 11:29:18;;;;;;;;;;;4.40;99.90;;;;;;5111488;28;20440;-75
2023/03/07 11:31:51;;;;;;;;;;;4.40;99.90;;;;;;5111686;28;19990;-75
2023/03/07 11:34:25;;;;;;;;;;;4.40;99.90;;;;;;5111299;28;19912;-74
2023/03/07 11:36:54;;;;;;;;;;;4.40;99.90;;;;;;5104862;28;19915;-75
2023/03/07 11:39:19;;;;;;;;;;;4.40;99.90;;;;;;5111364;28;19919;-74
2023/03/07 11:41:55;;;;;;;;;;;4.40;99.90;;;;;;5102436;28;19912;-75
2023/03/07 11:44:33;;;;;;;;;;;4.40;99.90;;;;;;5090672;28;19945;-74
2023/03/07 11:47:01;;;;;;;;;;;4.40;99.90;;;;;;5095503;28;19907;-75
2023/03/07 11:49:27;;;;;;;;;;;4.40;99.90;;;;;;5111464;28;19920;-75
2023/03/07 11:52:11;;;;;;;;;;;4.40;99.90;;;;;;5111264;28;19915;-74
2023/03/07 11:54:45;;;;;;;;;;;4.40;99.90;;;;;;5109432;28;19916;-74
2023/03/07 11:57:14;;;;;;;;;;;4.40;99.90;;;;;;5110963;28;20045;-75
2023/03/07 11:59:45;;;;;;;;;;;4.40;99.90;;;;;;5111148;28;20568;-74
2023/03/07 12:02:33;;;;;;;;;;;4.40;99.90;;;;;;5110827;28;19912;-75
2023/03/07 12:05:08;;;;;;;;;;;4.40;99.90;;;;;;5110486;28;19912;-74
2023/03/07 12:07:36;;;;;;;;;;;4.40;99.90;;;;;;5090829;28;19919;-75
2023/03/07 12:10:04;;;;;;;;;;;4.40;99.90;;;;;;5085742;28;19926;-74
2023/03/07 12:12:30;;;;;;;;;;;4.40;99.90;;;;;;5088970;28;19916;-74
2023/03/07 12:14:55;;;;;;;;;;;4.40;99.90;;;;;;5107600;28;20001;-75
2023/03/07 12:17:27;;;;;;;;;;;4.40;99.90;;;;;;5110351;28;19916;-74
2023/03/07 12:20:01;;;;;;;;;;;4.40;99.90;;;;;;5108599;28;19912;-74
2023/03/07 12:22:27;;;;;;;;;;;4.50;99.90;;;;;;5110074;28;20546;-74
2023/03/07 12:24:53;;;;;;;;;;;4.50;99.90;;;;;;5110006;28;20007;-74
2023/03/07 12:27:23;;;;;;;;;;;4.50;99.90;;;;;;5110273;28;20014;-75
2023/03/07 12:29:52;;;;;;;;;;;4.40;99.90;;;;;;5110340;28;20023;-74
2023/03/07 12:32:20;;;;;;;;;;;4.50;99.90;;;;;;5110223;28;20000;-74
2023/03/07 12:34:54;;;;;;;;;;;4.50;99.90;;;;;;5110047;28;19912;-75
2023/03/07 12:37:38;;;;;;;;;;;4.50;99.90;;;;;;5109658;28;19912;-75
2023/03/07 12:40:09;;;;;;;;;;;4.50;99.90;;;;;;5094748;28;20301;-74
2023/03/07 12:42:42;;;;;;;;;;;4.50;99.90;;;;;;5073864;28;20017;-75
2023/03/07 12:45:08;;;;;;;;;;;4.50;99.90;;;;;;5069157;28;20054;-74
2023/03/07 12:47:52;;;;;;;;;;;4.60;99.90;;;;;;5120793;27;20089;-74
2023/03/07 12:50:36;;;;;;;;;;;4.50;99.90;;;;;;5110089;28;19915;-75
2023/03/07 12:53:04;;;;;;;;;;;4.60;99.90;;;;;;5109625;28;19916;-75
2023/03/07 12:55:43;;;;;;;;;;;4.60;99.90;;;;;;5109696;28;20562;-74
2023/03/07 12:58:26;;;;;;;;;;;4.60;99.90;;;;;;5109602;28;20455;-75
2023/03/07 13:00:57;;;;;;;;;;;4.60;99.90;;;;;;5109816;28;19915;-75
2023/03/07 13:03:33;;;;;;;;;;;4.60;99.90;;;;;;5109432;28;19915;-74
2023/03/07 13:05:58;;;;;;;;;;;4.60;99.90;;;;;;5109958;28;20338;-75
2023/03/07 13:08:24;;;;;;;;;;;4.60;99.90;;;;;;5090738;28;19912;-74
2023/03/07 13:10:50;;;;;;;;;;;4.60;99.90;;;;;;5087650;28;20292;-75
2023/03/07 13:13:47;;;;;;;;;;;4.60;99.90;;;;;;5088815;28;19912;-74
2023/03/07 13:16:31;;;;;;;;;;;4.60;99.90;;;;;;5089220;28;19912;-75
2023/03/07 13:19:23;;;;;;;;;;;4.60;99.90;;;;;;5109491;28;19923;-74
2023/03/07 13:21:48;;;;;;;;;;;4.60;99.90;;;;;;5108370;28;19908;-74
2023/03/07 13:24:33;;;;;;;;;;;4.60;99.90;;;;;;5109120;28;19923;-75
2023/03/07 13:26:59;;;;;;;;;;;4.60;99.90;;;;;;5091627;28;19934;-75
2023/03/07 13:29:56;;;;;;;;;;;4.60;99.90;;;;;;5088146;28;20412;-74
2023/03/07 13:32:40;;;;;;;;;;;4.60;99.90;;;;;;5082521;28;19912;-75
2023/03/07 13:35:07;;;;;;;;;;;4.60;99.90;;;;;;5088392;28;19919;-75
2023/03/07 13:37:42;;;;;;;;;;;4.60;99.90;;;;;;5088732;28;19916;-75
2023/03/07 13:40:20;;;;;;;;;;;4.60;99.90;;;;;;5088767;28;20413;-74
2023/03/07 13:42:46;;;;;;;;;;;4.60;99.90;;;;;;5095822;28;20329;-74
2023/03/07 13:45:31;;;;;;;;;;;4.60;99.90;;;;;;5108820;28;19916;-74
2023/03/07 13:47:56;;;;;;;;;;;4.60;99.90;;;;;;5108700;28;19912;-74
2023/03/07 13:50:34;;;;;;;;;;;4.60;99.90;;;;;;5092088;28;20364;-75
2023/03/07 13:53:19;;;;;;;;;;;4.60;99.90;;;;;;5091594;28;19908;-75
2023/03/07 13:55:55;;;;;;;;;;;4.60;99.90;;;;;;5108607;28;20361;-75
2023/03/07 13:58:27;;;;;;;;;;;4.60;99.90;;;;;;5107831;28;19915;-75
2023/03/07 14:01:13;;;;;;;;;;;4.60;99.90;;;;;;5107147;28;20360;-75
2023/03/07 14:03:41;;;;;;;;;;;4.60;99.90;;;;;;5094868;28;20474;-74
2023/03/07 14:06:14;;;;;;;;;;;4.60;99.90;;;;;;5086622;28;19965;-74
2023/03/07 14:08:40;;;;;;;;;;;4.60;99.90;;;;;;5088538;28;19973;-75
2023/03/07 14:11:12;;;;;;;;;;;4.60;99.90;;;;;;5086140;28;19958;-75
2023/03/07 14:13:56;;;;;;;;;;;4.60;99.90;;;;;;5087724;28;19912;-75
2023/03/07 14:16:21;;;;;;;;;;;4.60;99.90;;;;;;5087820;28;19916;-74
2023/03/07 14:18:47;;;;;;;;;;;4.60;99.90;;;;;;5107397;28;19919;-75
2023/03/07 14:21:15;;;;;;;;;;;4.60;99.90;;;;;;5108338;28;20313;-75
2023/03/07 14:23:41;;;;;;;;;;;4.60;99.90;;;;;;5105644;28;20265;-74
2023/03/07 14:26:11;;;;;;;;;;;4.60;99.90;;;;;;5107357;28;19916;-75
2023/03/07 14:28:45;;;;;;;;;;;4.60;99.90;;;;;;5107050;28;19919;-74
2023/03/07 14:31:18;;;;;;;;;;;4.60;99.90;;;;;;5106813;28;20081;-74
2023/03/07 14:33:43;;;;;;;;;;;4.60;99.90;;;;;;5107086;28;19919;-74
2023/03/07 14:36:15;;;;;;;;;;;4.60;99.90;;;;;;5107444;28;19908;-74
2023/03/07 14:38:42;;;;;;;;;;;4.60;99.90;;;;;;5103848;28;20026;-74